Time;durP1;ratioP1;P1;durP2;ratioP2;P2;SDS_P1;SDS_P2;PMS_P1;PMS_P2;Temp;Humidity;BMP_temperature;BMP_pressure;BME280_temperature;BME280_humidity;BME280_pressure;Samples;Min_cycle;Max_cycle;Signal;HPM_P1;HPM_P2
2023/01/22 00:01:27;;;;;;;0.00;0.00;;;0.00;99.90;;;;;;5011365;28;20183;-77
2023/01/22 00:03:53;;;;;;;0.30;0.30;;;0.00;99.90;;;;;;5012226;28;20183;-77
2023/01/22 00:06:19;;;;;;;0.00;0.00;;;0.00;99.90;;;;;;5011964;28;20182;-78
2023/01/22 00:08:47;;;;;;;0.00;0.00;;;0.00;99.90;;;;;;5011921;28;20649;-78
2023/01/22 00:11:13;;;;;;;0.00;0.00;;;0.10;99.90;;;;;;5012028;28;20618;-77
2023/01/22 00:13:39;;;;;;;0.00;0.00;;;0.10;99.90;;;;;;4994727;28;20277;-78
2023/01/22 00:16:05;;;;;;;0.00;0.00;;;0.10;99.90;;;;;;5011742;28;20802;-77
2023/01/22 00:18:31;;;;;;;0.00;0.00;;;0.10;99.90;;;;;;5011908;28;20183;-77
2023/01/22 00:20:57;;;;;;;0.00;0.00;;;0.10;99.90;;;;;;5011338;28;20197;-77
2023/01/22 00:23:23;;;;;;;0.00;0.00;;;0.20;99.90;;;;;;5012084;28;20179;-78
2023/01/22 00:25:49;;;;;;;0.50;0.30;;;0.20;99.90;;;;;;4994110;28;20187;-78
2023/01/22 00:28:15;;;;;;;0.10;0.10;;;0.20;99.90;;;;;;5012168;28;20638;-79
2023/01/22 00:30:41;;;;;;;0.00;0.00;;;0.20;99.90;;;;;;5011196;28;20183;-78
2023/01/22 00:33:07;;;;;;;0.00;0.00;;;0.20;99.90;;;;;;5010994;28;20252;-78
2023/01/22 00:35:34;;;;;;;0.00;0.00;;;0.30;99.90;;;;;;5011209;28;20641;-79
2023/01/22 00:37:59;;;;;;;0.00;0.00;;;0.30;99.90;;;;;;5010730;28;20186;-78
2023/01/22 00:40:25;;;;;;;0.20;0.20;;;0.30;99.90;;;;;;5011468;28;20555;-78
2023/01/22 00:42:51;;;;;;;0.20;0.20;;;0.20;99.90;;;;;;5011795;28;20187;-77
2023/01/22 00:45:16;;;;;;;0.00;0.00;;;0.20;99.90;;;;;;4994093;28;20716;-78
2023/01/22 00:47:42;;;;;;;0.10;0.10;;;0.20;99.90;;;;;;5011809;28;20274;-78
2023/01/22 00:50:08;;;;;;;0.73;0.43;;;0.20;99.90;;;;;;5011902;28;20210;-77
2023/01/22 00:52:34;;;;;;;0.00;0.00;;;0.20;99.90;;;;;;5011303;28;20179;-78
2023/01/22 00:54:59;;;;;;;0.00;0.00;;;0.20;99.90;;;;;;5011566;28;20293;-77
2023/01/22 00:57:25;;;;;;;0.00;0.00;;;0.20;99.90;;;;;;5011577;28;20198;-78
2023/01/22 00:59:51;;;;;;;0.00;0.00;;;0.20;99.90;;;;;;5011783;28;20725;-75
2023/01/22 01:02:17;;;;;;;0.17;0.17;;;0.20;99.90;;;;;;5011554;28;20210;-77
2023/01/22 01:04:42;;;;;;;0.20;0.20;;;0.20;99.90;;;;;;5011490;28;20266;-76
2023/01/22 01:07:08;;;;;;;0.67;0.67;;;0.20;99.90;;;;;;4993983;28;20270;-77
2023/01/22 01:09:34;;;;;;;0.10;0.10;;;0.20;99.90;;;;;;5011443;28;20317;-77
2023/01/22 01:11:59;;;;;;;0.50;0.50;;;0.20;99.90;;;;;;5011801;28;20195;-76
2023/01/22 01:14:26;;;;;;;0.10;0.10;;;0.20;99.90;;;;;;5015180;28;20635;-77
2023/01/22 01:16:52;;;;;;;0.00;0.00;;;0.10;99.90;;;;;;4997601;28;20287;-76
2023/01/22 01:19:19;;;;;;;0.10;0.10;;;0.20;99.90;;;;;;5015268;28;20257;-76
2023/01/22 01:21:45;;;;;;;0.00;0.00;;;0.20;99.90;;;;;;5015051;28;20563;-76
2023/01/22 01:24:11;;;;;;;0.00;0.00;;;0.20;99.90;;;;;;5014580;28;20538;-76
2023/01/22 01:26:39;;;;;;;0.03;0.03;;;0.20;99.90;;;;;;5015149;28;20179;-77
2023/01/22 01:29:06;;;;;;;0.00;0.00;;;0.20;99.90;;;;;;5014978;28;20175;-77
2023/01/22 01:31:32;;;;;;;0.00;0.00;;;0.10;99.90;;;;;;4995600;28;20180;-76
2023/01/22 01:33:58;;;;;;;0.00;0.00;;;0.10;99.90;;;;;;5013828;28;20194;-76
2023/01/22 01:36:25;;;;;;;0.00;0.00;;;0.10;99.90;;;;;;5004766;28;20552;-77
2023/01/22 01:38:51;;;;;;;0.00;0.00;;;0.10;99.90;;;;;;5014140;28;20187;-76
2023/01/22 01:41:19;;;;;;;0.00;0.00;;;0.10;99.90;;;;;;5015094;28;20736;-76
2023/01/22 01:43:45;;;;;;;0.00;0.00;;;0.10;99.90;;;;;;5014843;28;20187;-76
2023/01/22 01:46:24;;;;;;;0.00;0.00;;;0.00;99.90;;;;;;5014616;28;20183;-75
2023/01/22 01:48:54;;;;;;;0.00;0.00;;;0.00;99.90;;;;;;5014734;28;20175;-76
2023/01/22 01:51:34;;;;;;;0.00;0.00;;;0.00;99.90;;;;;;4996973;28;20261;-76
2023/01/22 01:54:02;;;;;;;0.00;0.00;;;0.00;99.90;;;;;;5013774;28;20190;-76
2023/01/22 01:56:42;;;;;;;0.00;0.00;;;0.10;99.90;;;;;;5014182;28;20195;-76
2023/01/22 01:59:12;;;;;;;0.00;0.00;;;0.00;99.90;;;;;;5014408;28;20662;-76
2023/01/22 02:01:38;;;;;;;0.00;0.00;;;0.10;99.90;;;;;;4996590;28;20198;-77
2023/01/22 02:04:05;;;;;;;0.00;0.00;;;0.10;99.90;;;;;;4996655;28;20182;-76
2023/01/22 02:06:30;;;;;;;0.20;0.20;;;0.10;99.90;;;;;;5014526;28;20186;-76
2023/01/22 02:08:59;;;;;;;0.00;0.00;;;0.00;99.90;;;;;;5013826;28;20179;-75
2023/01/22 02:11:26;;;;;;;0.00;0.00;;;0.00;99.90;;;;;;5014347;28;20244;-76
2023/01/22 02:13:57;;;;;;;0.00;0.00;;;0.00;99.90;;;;;;5014222;28;20193;-76
2023/01/22 02:16:22;;;;;;;0.10;0.10;;;0.00;99.90;;;;;;5014084;28;20704;-75
2023/01/22 02:18:48;;;;;;;0.00;0.00;;;0.00;99.90;;;;;;4996319;28;20187;-75
2023/01/22 02:21:43;;;;;;;0.00;0.00;;;0.00;99.90;;;;;;5014329;28;20186;-75
2023/01/22 02:24:12;;;;;;;0.00;0.00;;;0.00;99.90;;;;;;4991538;28;20253;-76
2023/01/22 02:26:39;;;;;;;0.13;0.13;;;0.00;99.90;;;;;;5013778;28;20241;-77
2023/01/22 02:29:08;;;;;;;0.00;0.00;;;0.10;99.90;;;;;;5013755;28;20254;-77
2023/01/22 02:31:38;;;;;;;0.63;0.20;;;0.10;99.90;;;;;;5014024;28;20183;-77
2023/01/22 02:34:05;;;;;;;0.00;0.00;;;0.00;99.90;;;;;;5013724;28;20179;-76
2023/01/22 02:36:33;;;;;;;0.00;0.00;;;0.00;99.90;;;;;;5013835;28;20270;-77
2023/01/22 02:38:58;;;;;;;0.00;0.00;;;0.00;99.90;;;;;;5013019;28;20179;-77
2023/01/22 02:41:24;;;;;;;0.00;0.00;;;0.00;99.90;;;;;;5013690;28;20187;-76
2023/01/22 02:43:50;;;;;;;0.10;0.10;;;0.00;99.90;;;;;;5013145;28;20185;-76
2023/01/22 02:46:16;;;;;;;0.00;0.00;;;0.00;99.90;;;;;;5012940;28;20271;-76
2023/01/22 02:48:42;;;;;;;0.20;0.20;;;0.00;99.90;;;;;;5012961;28;20221;-77
2023/01/22 02:51:07;;;;;;;0.10;0.10;;;0.00;99.90;;;;;;5013440;28;20175;-77
2023/01/22 02:53:33;;;;;;;0.00;0.00;;;0.00;99.90;;;;;;5012834;28;20537;-77
2023/01/22 02:55:59;;;;;;;0.00;0.00;;;0.00;99.90;;;;;;5012642;28;20219;-76
2023/01/22 02:58:25;;;;;;;0.10;0.10;;;0.00;99.90;;;;;;4995670;28;20182;-77
2023/01/22 03:00:50;;;;;;;0.00;0.00;;;0.00;99.90;;;;;;5012772;28;20190;-76
2023/01/22 03:03:16;;;;;;;0.00;0.00;;;0.00;99.90;;;;;;5013297;28;20648;-76
2023/01/22 03:05:49;;;;;;;0.00;0.00;;;0.00;99.90;;;;;;5013487;28;20190;-76
2023/01/22 03:08:16;;;;;;;0.00;0.00;;;0.10;99.90;;;;;;5012973;28;20183;-77
2023/01/22 03:10:42;;;;;;;0.10;0.10;;;0.10;99.90;;;;;;5013067;28;20190;-77
2023/01/22 03:21:19;;;;;;;0.00;0.00;;;0.20;99.90;;;;;;4995033;28;20205;-77
2023/01/22 03:23:48;;;;;;;0.30;0.30;;;0.20;99.90;;;;;;5009489;28;20642;-78
2023/01/22 03:26:13;;;;;;;0.60;0.60;;;0.20;99.90;;;;;;5012680;28;20171;-77
2023/01/22 03:28:39;;;;;;;0.10;0.10;;;0.20;99.90;;;;;;5012495;28;20687;-76
2023/01/22 03:31:05;;;;;;;0.10;0.10;;;0.20;99.90;;;;;;5012466;28;20196;-77
2023/01/22 03:33:32;;;;;;;0.00;0.00;;;0.20;99.90;;;;;;5012064;28;20190;-78
2023/01/22 03:36:02;;;;;;;0.00;0.00;;;0.20;99.90;;;;;;4994753;28;20218;-77
2023/01/22 03:38:28;;;;;;;0.50;0.27;;;0.20;99.90;;;;;;4994381;28;20183;-76
2023/01/22 03:41:04;;;;;;;0.10;0.10;;;0.20;99.90;;;;;;5012228;28;20194;-77
2023/01/22 03:43:31;;;;;;;0.03;0.03;;;0.20;99.90;;;;;;5012083;28;20267;-77
2023/01/22 03:46:04;;;;;;;0.07;0.07;;;0.20;99.90;;;;;;5012094;28;20186;-77
2023/01/22 03:48:30;;;;;;;0.00;0.00;;;0.20;99.90;;;;;;5012147;28;20245;-78
2023/01/22 03:50:56;;;;;;;0.00;0.00;;;0.20;99.90;;;;;;5011838;28;20646;-78
2023/01/22 03:53:22;;;;;;;0.00;0.00;;;0.20;99.90;;;;;;5011730;28;20182;-76
2023/01/22 03:55:57;;;;;;;0.00;0.00;;;0.20;99.90;;;;;;5010822;28;20576;-77
2023/01/22 03:58:22;;;;;;;0.00;0.00;;;0.20;99.90;;;;;;5006890;28;20250;-76
2023/01/22 04:00:49;;;;;;;0.00;0.00;;;0.20;99.90;;;;;;4991766;28;20203;-76
2023/01/22 04:03:14;;;;;;;0.00;0.00;;;0.20;99.90;;;;;;5011772;28;20189;-77
2023/01/22 04:05:40;;;;;;;0.00;0.00;;;0.20;99.90;;;;;;4994402;28;20275;-76
2023/01/22 04:08:05;;;;;;;0.03;0.03;;;0.20;99.90;;;;;;5011126;28;20175;-76
2023/01/22 04:10:31;;;;;;;0.10;0.10;;;0.20;99.90;;;;;;5011537;28;20637;-76
2023/01/22 04:12:56;;;;;;;1.07;0.40;;;0.20;99.90;;;;;;5011489;28;20179;-76
2023/01/22 04:15:22;;;;;;;0.00;0.00;;;0.20;99.90;;;;;;5011237;28;20239;-77
2023/01/22 04:17:47;;;;;;;0.00;0.00;;;0.20;99.90;;;;;;5011128;28;20174;-76
2023/01/22 04:20:13;;;;;;;0.00;0.00;;;0.20;99.90;;;;;;5011559;28;20597;-77
2023/01/22 04:22:38;;;;;;;0.00;0.00;;;0.20;99.90;;;;;;5011368;28;20190;-76
2023/01/22 04:25:04;;;;;;;0.00;0.00;;;0.20;99.90;;;;;;5011041;28;20588;-76
2023/01/22 04:27:30;;;;;;;0.03;0.03;;;0.20;99.90;;;;;;5011564;28;20197;-77
2023/01/22 04:29:55;;;;;;;0.00;0.00;;;0.20;99.90;;;;;;5011390;28;20191;-77
2023/01/22 04:32:21;;;;;;;0.00;0.00;;;0.20;99.90;;;;;;5010032;28;20548;-77
2023/01/22 04:34:46;;;;;;;1.17;1.07;;;0.20;99.90;;;;;;5011434;28;20700;-77
2023/01/22 04:37:12;;;;;;;0.00;0.00;;;0.20;99.90;;;;;;4991006;28;20201;-78
2023/01/22 04:39:38;;;;;;;0.00;0.00;;;0.20;99.90;;;;;;5008502;28;20172;-78
2023/01/22 04:42:03;;;;;;;0.00;0.00;;;0.30;99.90;;;;;;5011521;28;20190;-78
2023/01/22 04:44:29;;;;;;;0.00;0.00;;;0.30;99.90;;;;;;5011194;28;20194;-77
2023/01/22 04:46:54;;;;;;;0.10;0.10;;;0.30;99.90;;;;;;5011424;28;20650;-78
2023/01/22 04:49:19;;;;;;;0.87;0.30;;;0.30;99.90;;;;;;5015831;28;20193;-76
2023/01/22 04:51:45;;;;;;;0.00;0.00;;;0.30;99.90;;;;;;4997827;28;20556;-77
2023/01/22 04:54:10;;;;;;;0.00;0.00;;;0.30;99.90;;;;;;5015152;28;20282;-78
2023/01/22 04:56:36;;;;;;;0.00;0.00;;;0.20;99.90;;;;;;5015095;28;20199;-77
2023/01/22 04:59:01;;;;;;;0.00;0.00;;;0.20;99.90;;;;;;5015228;28;20171;-77
2023/01/22 05:01:27;;;;;;;0.00;0.00;;;0.20;99.90;;;;;;5015504;28;20182;-76
2023/01/22 05:03:53;;;;;;;0.20;0.20;;;0.20;99.90;;;;;;5015309;28;20175;-76
2023/01/22 05:06:18;;;;;;;0.00;0.00;;;0.20;99.90;;;;;;5015314;28;20641;-76
2023/01/22 05:08:43;;;;;;;0.10;0.10;;;0.20;99.90;;;;;;5014909;28;20206;-76
2023/01/22 05:11:09;;;;;;;0.05;0.05;;;0.30;99.90;;;;;;5014599;28;20183;-76
2023/01/22 05:13:34;;;;;;;0.00;0.00;;;0.30;99.90;;;;;;4998083;28;20253;-76
2023/01/22 05:16:00;;;;;;;0.10;0.10;;;0.30;99.90;;;;;;5014764;28;20643;-76
2023/01/22 05:18:25;;;;;;;1.23;0.77;;;0.30;99.90;;;;;;4997527;28;20171;-78
2023/01/22 05:20:51;;;;;;;0.57;0.55;;;0.30;99.90;;;;;;5015093;28;20182;-77
2023/01/22 05:23:16;;;;;;;0.00;0.00;;;0.40;99.90;;;;;;5014739;28;20552;-76
2023/01/22 05:25:49;;;;;;;0.10;0.10;;;0.40;99.90;;;;;;5014868;28;20179;-76
2023/01/22 05:28:15;;;;;;;0.00;0.00;;;0.30;99.90;;;;;;5014383;28;20183;-76
2023/01/22 05:30:40;;;;;;;0.00;0.00;;;0.30;99.90;;;;;;5014634;28;20174;-76
2023/01/22 05:33:06;;;;;;;0.00;0.00;;;0.30;99.90;;;;;;5014668;28;20195;-77
2023/01/22 05:35:31;;;;;;;0.00;0.00;;;0.30;99.90;;;;;;5015104;28;20210;-78
2023/01/22 05:37:57;;;;;;;0.32;0.25;;;0.30;99.90;;;;;;5014379;28;20186;-77
2023/01/22 05:40:23;;;;;;;0.00;0.00;;;0.30;99.90;;;;;;5014688;28;20187;-77
2023/01/22 05:42:48;;;;;;;1.33;0.70;;;0.30;99.90;;;;;;5014702;28;20263;-77
2023/01/22 05:45:14;;;;;;;0.00;0.00;;;0.40;99.90;;;;;;5014491;28;20277;-77
2023/01/22 05:47:39;;;;;;;0.00;0.00;;;0.40;99.90;;;;;;5013819;28;20534;-76
2023/01/22 05:50:05;;;;;;;0.03;0.03;;;0.40;99.90;;;;;;5014350;28;20665;-77
2023/01/22 05:52:30;;;;;;;0.00;0.00;;;0.40;99.90;;;;;;4990262;28;20175;-78
2023/01/22 05:54:58;;;;;;;0.00;0.00;;;0.40;99.90;;;;;;5014199;28;20210;-77
2023/01/22 05:57:25;;;;;;;0.00;0.00;;;0.50;99.90;;;;;;5014514;28;20229;-77
2023/01/22 05:59:51;;;;;;;0.00;0.00;;;0.50;99.90;;;;;;5013150;28;20179;-76
2023/01/22 06:02:16;;;;;;;0.00;0.00;;;0.50;99.90;;;;;;5014689;28;20237;-76
2023/01/22 06:04:42;;;;;;;0.10;0.10;;;0.50;99.90;;;;;;5014150;28;20183;-75
2023/01/22 06:07:07;;;;;;;0.00;0.00;;;0.50;99.90;;;;;;5013999;28;20191;-76
2023/01/22 06:09:33;;;;;;;0.27;0.27;;;0.50;99.90;;;;;;5014443;28;20572;-76
2023/01/22 06:11:58;;;;;;;0.17;0.17;;;0.50;99.90;;;;;;5012821;28;20187;-80
2023/01/22 06:14:24;;;;;;;0.27;0.20;;;0.50;99.90;;;;;;5006550;28;20220;-77
2023/01/22 06:16:49;;;;;;;0.07;0.07;;;0.50;99.90;;;;;;5013834;28;20313;-76
2023/01/22 06:19:15;;;;;;;0.00;0.00;;;0.50;99.90;;;;;;4995121;28;20179;-72
2023/01/22 06:21:42;;;;;;;0.00;0.00;;;0.50;99.90;;;;;;5014091;28;20630;-72
2023/01/22 06:24:08;;;;;;;0.00;0.00;;;0.50;99.90;;;;;;5012502;28;20220;-76
2023/01/22 06:26:33;;;;;;;0.10;0.10;;;0.50;99.90;;;;;;4996241;28;20187;-73
2023/01/22 06:28:59;;;;;;;0.00;0.00;;;0.50;99.90;;;;;;5013013;28;20206;-82
2023/01/22 06:31:24;;;;;;;0.00;0.00;;;0.50;99.90;;;;;;5014189;28;20273;-80
2023/01/22 06:33:52;;;;;;;0.00;0.00;;;0.50;99.90;;;;;;5013218;28;20179;-77
2023/01/22 06:36:18;;;;;;;0.00;0.00;;;0.40;99.90;;;;;;5006265;28;20216;-75
2023/01/22 06:38:43;;;;;;;0.17;0.17;;;0.50;99.90;;;;;;5012811;28;20183;-74
2023/01/22 06:41:09;;;;;;;0.00;0.00;;;0.50;99.90;;;;;;5013461;28;20306;-75
2023/01/22 06:43:36;;;;;;;0.20;0.20;;;0.50;99.90;;;;;;5013984;28;20653;-75
2023/01/22 06:46:02;;;;;;;0.10;0.10;;;0.50;99.90;;;;;;5013250;28;20182;-75
2023/01/22 06:48:28;;;;;;;0.10;0.10;;;0.50;99.90;;;;;;5013871;28;20175;-75
2023/01/22 06:50:57;;;;;;;0.10;0.10;;;0.50;99.90;;;;;;5013861;28;20229;-76
2023/01/22 06:53:23;;;;;;;0.30;0.30;;;0.50;99.90;;;;;;5013840;28;20193;-75
2023/01/22 06:55:49;;;;;;;0.10;0.10;;;0.50;99.90;;;;;;5013739;28;20218;-74
2023/01/22 06:58:14;;;;;;;0.10;0.10;;;0.50;99.90;;;;;;5013765;28;20237;-75
2023/01/22 07:00:40;;;;;;;0.10;0.10;;;0.50;99.90;;;;;;5013630;28;20688;-74
2023/01/22 07:03:06;;;;;;;0.00;0.00;;;0.50;99.90;;;;;;5013534;28;20622;-75
2023/01/22 07:05:32;;;;;;;0.00;0.00;;;0.50;99.90;;;;;;5013653;28;20182;-75
2023/01/22 07:07:58;;;;;;;0.10;0.10;;;0.50;99.90;;;;;;5013755;28;20570;-75
2023/01/22 07:10:23;;;;;;;0.00;0.00;;;0.50;99.90;;;;;;5013345;28;20183;-75
2023/01/22 07:12:53;;;;;;;0.00;0.00;;;0.50;99.90;;;;;;5013710;28;20316;-75
2023/01/22 07:15:19;;;;;;;0.67;0.67;;;0.50;99.90;;;;;;5013254;28;20300;-76
2023/01/22 07:17:50;;;;;;;0.00;0.00;;;0.50;99.90;;;;;;5013481;28;20638;-75
2023/01/22 07:20:16;;;;;;;0.00;0.00;;;0.60;99.90;;;;;;5013511;28;20178;-75
2023/01/22 07:22:41;;;;;;;0.43;0.43;;;0.60;99.90;;;;;;5013253;28;20183;-75
2023/01/22 07:25:07;;;;;;;0.00;0.00;;;0.50;99.90;;;;;;5013457;28;20233;-76
2023/01/22 07:27:33;;;;;;;0.00;0.00;;;0.60;99.90;;;;;;5013305;28;20709;-76
2023/01/22 07:29:59;;;;;;;0.52;0.52;;;0.70;99.90;;;;;;5013176;28;20186;-76
2023/01/22 07:32:25;;;;;;;0.00;0.00;;;0.70;99.90;;;;;;5013192;28;20630;-75
2023/01/22 07:34:50;;;;;;;0.07;0.07;;;0.70;99.90;;;;;;5013043;28;20261;-75
2023/01/22 07:37:16;;;;;;;0.00;0.00;;;0.70;99.90;;;;;;5013288;28;20278;-75
2023/01/22 07:39:41;;;;;;;0.38;0.38;;;0.70;99.90;;;;;;4995465;28;20225;-75
2023/01/22 07:42:07;;;;;;;0.10;0.10;;;0.70;99.90;;;;;;5013106;28;20232;-76
2023/01/22 07:44:32;;;;;;;0.10;0.05;;;0.80;99.90;;;;;;5013050;28;20173;-75
2023/01/22 07:46:58;;;;;;;0.05;0.05;;;0.80;99.90;;;;;;5013058;28;20181;-75
2023/01/22 07:49:23;;;;;;;0.25;0.25;;;0.80;99.90;;;;;;5012938;28;20187;-76
2023/01/22 07:51:49;;;;;;;0.00;0.00;;;0.80;99.90;;;;;;5013015;28;20183;-75
2023/01/22 07:54:14;;;;;;;0.40;0.20;;;0.80;99.90;;;;;;5012894;28;20262;-75
2023/01/22 07:56:40;;;;;;;0.13;0.13;;;0.80;99.90;;;;;;5012775;28;20737;-75
2023/01/22 07:59:06;;;;;;;0.35;0.30;;;0.90;99.90;;;;;;5012730;28;20543;-74
2023/01/22 08:01:31;;;;;;;1.65;0.50;;;0.90;99.90;;;;;;5012807;28;20185;-74
2023/01/22 08:03:56;;;;;;;0.00;0.00;;;0.90;99.90;;;;;;5012672;28;20222;-75
2023/01/22 08:06:22;;;;;;;0.00;0.00;;;0.80;99.90;;;;;;5012767;28;20237;-75
2023/01/22 08:08:49;;;;;;;0.22;0.22;;;0.80;99.90;;;;;;5012688;28;20265;-74
2023/01/22 08:11:14;;;;;;;0.10;0.10;;;0.90;99.90;;;;;;4995124;28;20545;-75
2023/01/22 08:13:40;;;;;;;0.00;0.00;;;0.90;99.90;;;;;;5012816;28;20258;-74
2023/01/22 08:16:08;;;;;;;0.00;0.00;;;0.90;99.90;;;;;;5012176;28;20277;-75
2023/01/22 08:18:33;;;;;;;0.10;0.10;;;0.90;99.90;;;;;;5012569;28;20167;-75
2023/01/22 08:21:02;;;;;;;0.10;0.10;;;0.90;99.90;;;;;;5012410;28;20194;-75
2023/01/22 08:23:28;;;;;;;0.00;0.00;;;0.90;99.90;;;;;;5011874;28;20634;-75
2023/01/22 08:26:00;;;;;;;0.05;0.05;;;1.00;99.90;;;;;;5012355;28;20209;-75
2023/01/22 08:28:26;;;;;;;0.00;0.00;;;1.00;99.90;;;;;;5012530;28;20259;-75
2023/01/22 08:30:59;;;;;;;0.00;0.00;;;1.10;99.90;;;;;;5012445;28;20206;-75
2023/01/22 08:33:26;;;;;;;0.00;0.00;;;1.20;99.90;;;;;;4995541;28;20182;-75
2023/01/22 08:35:51;;;;;;;0.30;0.30;;;1.20;99.90;;;;;;5012194;28;20246;-75
2023/01/22 08:38:17;;;;;;;0.08;0.08;;;1.20;99.90;;;;;;5012299;28;20203;-76
2023/01/22 08:40:42;;;;;;;0.10;0.10;;;1.20;99.90;;;;;;5012268;28;20183;-75
2023/01/22 08:43:08;;;;;;;0.00;0.00;;;1.20;99.90;;;;;;5012287;28;20254;-75
2023/01/22 08:45:33;;;;;;;0.00;0.00;;;1.20;99.90;;;;;;4994524;28;20190;-76
2023/01/22 08:47:59;;;;;;;0.35;0.10;;;1.20;99.90;;;;;;5012099;28;20178;-75
2023/01/22 08:50:28;;;;;;;0.68;0.63;;;1.30;99.90;;;;;;5012241;28;20178;-75
2023/01/22 08:52:56;;;;;;;0.00;0.00;;;1.30;99.90;;;;;;5011944;28;20634;-76
2023/01/22 08:55:21;;;;;;;0.00;0.00;;;1.30;99.90;;;;;;4994688;28;20264;-77
2023/01/22 08:57:52;;;;;;;0.17;0.17;;;1.30;99.90;;;;;;5011977;28;20265;-76
2023/01/22 09:00:18;;;;;;;0.10;0.10;;;1.30;99.90;;;;;;5012065;28;20171;-76
2023/01/22 09:02:44;;;;;;;0.00;0.00;;;1.30;99.90;;;;;;4994436;28;20653;-76
2023/01/22 09:05:09;;;;;;;0.00;0.00;;;1.30;99.90;;;;;;5012147;28;20203;-76
2023/01/22 09:07:35;;;;;;;0.00;0.00;;;1.30;99.90;;;;;;5012056;28;20224;-77
2023/01/22 09:10:01;;;;;;;0.00;0.00;;;1.40;99.90;;;;;;5012331;28;20653;-76
2023/01/22 09:12:26;;;;;;;0.40;0.40;;;1.30;99.90;;;;;;5012196;28;20182;-76
2023/01/22 09:14:52;;;;;;;0.00;0.00;;;1.40;99.90;;;;;;4994050;28;20209;-76
2023/01/22 09:17:17;;;;;;;0.00;0.00;;;1.40;99.90;;;;;;5011995;28;20182;-76
2023/01/22 09:19:43;;;;;;;0.05;0.05;;;1.40;99.90;;;;;;5012090;28;20179;-76
2023/01/22 09:22:08;;;;;;;0.00;0.00;;;1.40;99.90;;;;;;5011958;28;20843;-76
2023/01/22 09:24:34;;;;;;;0.20;0.20;;;1.40;99.90;;;;;;5011148;28;20222;-71
2023/01/22 09:26:59;;;;;;;0.08;0.08;;;1.40;99.90;;;;;;5011045;28;20249;-76
2023/01/22 09:29:25;;;;;;;0.00;0.00;;;1.50;99.90;;;;;;5010978;28;20178;-74
2023/01/22 09:31:50;;;;;;;0.10;0.10;;;1.50;99.90;;;;;;5011551;28;20233;-75
2023/01/22 09:34:16;;;;;;;0.00;0.00;;;1.60;99.90;;;;;;5012484;28;20183;-74
2023/01/22 09:36:42;;;;;;;0.05;0.05;;;1.60;99.90;;;;;;5009744;28;20544;-75
2023/01/22 09:39:08;;;;;;;0.00;0.00;;;1.60;99.90;;;;;;5017735;28;20178;-72
2023/01/22 09:41:39;;;;;;;0.00;0.00;;;1.70;99.90;;;;;;5017274;28;20187;-73
2023/01/22 09:44:14;;;;;;;0.00;0.00;;;1.70;99.90;;;;;;5000392;28;20187;-73
2023/01/22 09:46:47;;;;;;;0.00;0.00;;;1.70;99.90;;;;;;5014918;28;20277;-74
2023/01/22 09:49:22;;;;;;;0.00;0.00;;;1.80;99.90;;;;;;5002597;28;20196;-74
2023/01/22 09:51:54;;;;;;;0.10;0.10;;;1.80;99.90;;;;;;5012509;28;20637;-72
2023/01/22 09:54:20;;;;;;;0.20;0.20;;;1.80;99.90;;;;;;5014450;28;20696;-71
2023/01/22 09:56:49;;;;;;;0.00;0.00;;;1.90;99.90;;;;;;5014763;28;20190;-71
2023/01/22 09:59:21;;;;;;;0.52;0.50;;;1.90;99.90;;;;;;5014204;28;20178;-75
2023/01/22 10:01:53;;;;;;;0.00;0.00;;;1.90;99.90;;;;;;5014463;28;20187;-73
2023/01/22 10:04:29;;;;;;;0.00;0.00;;;2.00;99.90;;;;;;5012394;28;20190;-77
2023/01/22 10:06:57;;;;;;;0.22;0.22;;;2.00;99.90;;;;;;5012865;28;20179;-77
2023/01/22 10:09:23;;;;;;;0.10;0.10;;;2.10;99.90;;;;;;5012368;28;20819;-76
2023/01/22 10:11:52;;;;;;;0.00;0.00;;;2.10;99.90;;;;;;5007564;28;20212;-76
2023/01/22 10:14:21;;;;;;;0.08;0.08;;;2.20;99.90;;;;;;5012909;28;20171;-76
2023/01/22 10:16:47;;;;;;;0.00;0.00;;;2.20;99.90;;;;;;5013982;28;20709;-76
2023/01/22 10:19:25;;;;;;;0.00;0.00;;;2.30;99.90;;;;;;5014482;28;20207;-75
2023/01/22 10:22:03;;;;;;;0.00;0.00;;;2.40;99.90;;;;;;5014175;28;20183;-74
2023/01/22 10:24:29;;;;;;;0.00;0.00;;;2.30;99.90;;;;;;5014424;28;20179;-74
2023/01/22 10:26:57;;;;;;;0.00;0.00;;;2.30;99.90;;;;;;4997865;28;20183;-73
2023/01/22 10:29:33;;;;;;;0.05;0.05;;;2.30;99.90;;;;;;5012025;28;20179;-74
2023/01/22 10:32:15;;;;;;;0.00;0.00;;;2.30;99.90;;;;;;5014190;28;20182;-74
2023/01/22 10:34:41;;;;;;;0.10;0.10;;;2.40;99.90;;;;;;5014112;28;20827;-74
2023/01/22 10:37:16;;;;;;;0.00;0.00;;;2.50;99.90;;;;;;5014381;28;20190;-74
2023/01/22 10:39:58;;;;;;;0.00;0.00;;;2.50;99.90;;;;;;5016512;28;20236;-73
2023/01/22 10:42:28;;;;;;;0.00;0.00;;;2.50;99.90;;;;;;5033703;28;20256;-75
2023/01/22 10:45:15;;;;;;;0.00;0.00;;;2.60;99.90;;;;;;5017643;28;20667;-75
2023/01/22 10:47:40;;;;;;;0.00;0.00;;;2.60;99.90;;;;;;5013515;28;20265;-74
2023/01/22 10:50:13;;;;;;;0.00;0.00;;;2.60;99.90;;;;;;5012240;28;20743;-75
2023/01/22 10:52:43;;;;;;;0.28;0.15;;;2.60;99.90;;;;;;5005321;28;20172;-75
2023/01/22 10:55:26;;;;;;;0.00;0.00;;;2.60;99.90;;;;;;5002129;28;20213;-76
2023/01/22 10:58:05;;;;;;;0.00;0.00;;;2.60;99.90;;;;;;4994577;28;20187;-77
2023/01/22 11:00:38;;;;;;;0.10;0.10;;;2.60;99.90;;;;;;5001608;28;20269;-75
2023/01/22 11:03:29;;;;;;;0.00;0.00;;;2.70;99.90;;;;;;5013374;28;20245;-75
2023/01/22 11:05:59;;;;;;;0.00;0.00;;;2.70;99.90;;;;;;5012031;28;20210;-75
2023/01/22 11:08:29;;;;;;;0.00;0.00;;;2.80;99.90;;;;;;5012752;28;20531;-74
2023/01/22 11:11:06;;;;;;;0.00;0.00;;;2.80;99.90;;;;;;5013491;28;20205;-74
2023/01/22 11:13:53;;;;;;;0.08;0.08;;;2.90;99.90;;;;;;5013070;28;20179;-75
2023/01/22 11:16:21;;;;;;;0.00;0.00;;;2.90;99.90;;;;;;5012789;28;20721;-74
2023/01/22 11:19:12;;;;;;;0.00;0.00;;;2.90;99.90;;;;;;5017014;28;20205;-75
2023/01/22 11:21:45;;;;;;;0.00;0.00;;;2.90;99.90;;;;;;5012603;28;20182;-75
2023/01/22 11:24:24;;;;;;;0.10;0.10;;;2.90;99.90;;;;;;5012969;28;20190;-75
2023/01/22 11:27:22;;;;;;;0.00;0.00;;;2.90;99.90;;;;;;5013072;28;20178;-75
2023/01/22 11:29:56;;;;;;;0.30;0.22;;;2.90;99.90;;;;;;4979135;28;20191;-76
2023/01/22 11:32:40;;;;;;;0.28;0.28;;;2.90;99.90;;;;;;5012894;28;20185;-76
2023/01/22 11:35:35;;;;;;;0.00;0.00;;;3.00;99.90;;;;;;5010990;28;20250;-75
2023/01/22 11:38:03;;;;;;;0.00;0.00;;;3.00;99.90;;;;;;5010747;28;20646;-74
2023/01/22 11:40:34;;;;;;;0.00;0.00;;;3.00;99.90;;;;;;5012907;28;20660;-75
2023/01/22 11:43:32;;;;;;;0.35;0.35;;;3.00;99.90;;;;;;5012906;28;20176;-75
2023/01/22 11:46:32;;;;;;;1.98;0.63;;;3.10;99.90;;;;;;4993278;28;20211;-75
2023/01/22 11:49:12;;;;;;;0.20;0.20;;;3.10;99.90;;;;;;4968799;28;20325;-74
2023/01/22 11:51:52;;;;;;;0.13;0.13;;;3.10;99.90;;;;;;5008591;28;20718;-74
2023/01/22 11:54:44;;;;;;;0.00;0.00;;;3.10;99.90;;;;;;5010287;28;20178;-74
2023/01/22 11:57:30;;;;;;;0.30;0.30;;;3.10;99.90;;;;;;4988550;28;20209;-75
2023/01/22 11:59:56;;;;;;;0.00;0.00;;;3.10;99.90;;;;;;5012325;28;20186;-75
2023/01/22 12:02:47;;;;;;;0.00;0.00;;;3.10;99.90;;;;;;5012238;28;20186;-75
2023/01/22 12:05:44;;;;;;;0.00;0.00;;;3.00;99.90;;;;;;5003468;28;20190;-74
2023/01/22 12:08:17;;;;;;;0.00;0.00;;;3.10;99.90;;;;;;5011870;28;20193;-74
2023/01/22 12:11:06;;;;;;;0.00;0.00;;;3.10;99.90;;;;;;5012365;28;20267;-74
2023/01/22 12:14:02;;;;;;;0.10;0.10;;;3.10;99.90;;;;;;5011396;28;20182;-74
2023/01/22 12:16:43;;;;;;;0.00;0.00;;;3.10;99.90;;;;;;5000127;28;20230;-73
2023/01/22 12:19:17;;;;;;;0.20;0.20;;;3.10;99.90;;;;;;5011932;28;20186;-77
2023/01/22 12:22:14;;;;;;;0.10;0.10;;;3.10;99.90;;;;;;5011378;28;20472;-75
2023/01/22 12:24:47;;;;;;;0.00;0.00;;;3.10;99.90;;;;;;5001987;28;20534;-73
2023/01/22 12:27:24;;;;;;;0.10;0.10;;;3.20;99.90;;;;;;5008344;28;20183;-74
2023/01/22 12:29:54;;;;;;;0.20;0.20;;;3.10;99.90;;;;;;5018115;28;20200;-74
2023/01/22 12:32:21;;;;;;;0.10;0.10;;;3.10;99.90;;;;;;4992442;28;20237;-73
2023/01/22 12:34:55;;;;;;;0.00;0.00;;;3.10;99.90;;;;;;4992451;28;20215;-74
2023/01/22 12:37:25;;;;;;;0.00;0.00;;;3.10;99.90;;;;;;5001804;28;20187;-74
2023/01/22 12:40:14;;;;;;;0.00;0.00;;;3.00;99.90;;;;;;4992533;28;20179;-74
2023/01/22 12:42:48;;;;;;;0.00;0.00;;;3.00;99.90;;;;;;4992375;28;20267;-73
2023/01/22 12:45:27;;;;;;;0.00;0.00;;;3.10;99.90;;;;;;4992463;28;20202;-74
2023/01/22 12:48:03;;;;;;;0.00;0.00;;;3.10;99.90;;;;;;4992330;28;20179;-74
2023/01/22 12:50:29;;;;;;;0.20;0.20;;;3.10;99.90;;;;;;5010374;28;20186;-74
2023/01/22 12:53:03;;;;;;;0.00;0.00;;;3.10;99.90;;;;;;5012042;28;20179;-74
2023/01/22 12:55:36;;;;;;;0.00;0.00;;;3.10;99.90;;;;;;4994335;28;20221;-73
2023/01/22 12:58:03;;;;;;;0.00;0.00;;;3.00;99.90;;;;;;5011683;28;20182;-73
2023/01/22 13:00:33;;;;;;;0.20;0.20;;;3.00;99.90;;;;;;5011061;28;20610;-73
2023/01/22 13:03:01;;;;;;;0.00;0.00;;;3.10;99.90;;;;;;5010860;28;20213;-73
2023/01/22 13:05:29;;;;;;;0.00;0.00;;;3.10;99.90;;;;;;5010254;28;20187;-73
2023/01/22 13:08:01;;;;;;;0.00;0.00;;;3.00;99.90;;;;;;4995786;28;20245;-75
2023/01/22 13:10:33;;;;;;;0.08;0.08;;;3.00;99.90;;;;;;5000090;28;20179;-75
2023/01/22 13:13:20;;;;;;;0.00;0.00;;;3.00;99.90;;;;;;5012010;28;20171;-76
2023/01/22 13:15:56;;;;;;;0.00;0.00;;;3.00;99.90;;;;;;5015406;28;20234;-74